createdAt,value
2018-01-10T00:00:05.463Z,3.71
2018-01-10T00:01:05.419Z,3.67
2018-01-10T00:02:05.375Z,3.71
2018-01-10T00:03:05.319Z,3.44
2018-01-10T00:04:05.281Z,3.33
2018-01-10T00:05:05.236Z,3.25
2018-01-10T00:06:05.191Z,3.25
2018-01-10T00:07:05.145Z,3.34
2018-01-10T00:08:05.102Z,3.31
2018-01-10T00:09:05.068Z,3.25
2018-01-10T00:10:05.023Z,3.15
2018-01-10T00:11:04.984Z,3.10
2018-01-10T00:12:04.917Z,3.06
2018-01-10T00:13:04.894Z,3.03
2018-01-10T00:14:04.829Z,2.98
2018-01-10T00:15:04.796Z,2.94
2018-01-10T00:16:04.750Z,3.09
2018-01-10T00:17:04.685Z,3.23
2018-01-10T00:18:04.648Z,3.31
2018-01-10T00:19:04.595Z,3.28
2018-01-10T00:20:04.554Z,3.12
2018-01-10T00:21:04.505Z,3.03
2018-01-10T00:22:04.461Z,3.05
2018-01-10T00:23:04.417Z,3.10
2018-01-10T00:24:04.368Z,3.06
2018-01-10T00:25:04.334Z,3.13
2018-01-10T00:26:04.286Z,3.03
2018-01-10T00:27:04.238Z,3.18
2018-01-10T00:28:04.189Z,3.28
2018-01-10T00:29:04.155Z,3.12
2018-01-10T00:30:04.102Z,3.07
2018-01-10T00:31:04.061Z,3.16
2018-01-10T00:32:04.013Z,3.00
2018-01-10T00:33:03.957Z,2.91
2018-01-10T00:34:03.919Z,2.84
2018-01-10T00:35:03.888Z,2.81
2018-01-10T00:36:03.828Z,2.85
2018-01-10T00:37:03.790Z,2.89
2018-01-10T00:38:03.753Z,2.94
2018-01-10T00:39:03.695Z,3.16
2018-01-10T00:40:03.647Z,3.30
2018-01-10T00:41:03.616Z,3.06
2018-01-10T00:42:03.560Z,2.89
2018-01-10T00:43:03.515Z,2.73
2018-01-10T00:44:03.466Z,2.55
2018-01-10T00:45:03.418Z,2.49
2018-01-10T00:46:03.378Z,2.44
2018-01-10T00:47:03.331Z,2.26
2018-01-10T00:48:03.287Z,2.19
2018-01-10T00:49:03.242Z,2.20
2018-01-10T00:50:03.202Z,2.19
2018-01-10T00:51:03.139Z,2.31
2018-01-10T00:52:03.108Z,2.51
2018-01-10T00:53:03.055Z,2.41
2018-01-10T00:54:03.056Z,2.33
2018-01-10T00:55:02.964Z,2.30
2018-01-10T00:56:02.931Z,2.15
2018-01-10T00:57:02.873Z,2.23
2018-01-10T00:58:02.868Z,2.15
2018-01-10T00:59:02.793Z,2.23
2018-01-10T01:00:02.737Z,2.16
2018-01-10T01:01:02.687Z,2.28
2018-01-10T01:02:02.664Z,2.26
2018-01-10T01:03:02.604Z,2.15
2018-01-10T01:04:02.551Z,2.10
2018-01-10T01:05:02.520Z,2.12
2018-01-10T01:06:02.460Z,2.08
2018-01-10T01:07:02.420Z,1.99
2018-01-10T01:08:02.372Z,1.99
2018-01-10T01:09:02.313Z,2.09
2018-01-10T01:10:02.286Z,2.26
2018-01-10T01:11:02.241Z,2.31
2018-01-10T01:12:02.193Z,2.33
2018-01-10T01:13:02.138Z,2.26
2018-01-10T01:14:02.099Z,2.16
2018-01-10T01:15:02.054Z,2.19
2018-01-10T01:16:02.002Z,2.20
2018-01-10T01:17:01.968Z,2.35
2018-01-10T01:18:01.920Z,2.48
2018-01-10T01:19:01.866Z,2.52
2018-01-10T01:20:01.821Z,2.30
2018-01-10T01:21:01.775Z,2.15
2018-01-10T01:22:01.727Z,2.10
2018-01-10T01:23:01.678Z,2.19
2018-01-10T01:24:01.647Z,2.09
2018-01-10T01:25:01.618Z,2.12
2018-01-10T01:26:01.545Z,1.99
2018-01-10T01:27:01.516Z,1.93
2018-01-10T01:28:01.452Z,2.01
2018-01-10T01:29:01.404Z,2.15
2018-01-10T01:30:01.363Z,2.10
2018-01-10T01:31:01.322Z,2.06
2018-01-10T01:32:01.265Z,2.06
2018-01-10T01:33:01.230Z,2.13
2018-01-10T01:34:01.175Z,2.17
2018-01-10T01:35:01.137Z,2.15
2018-01-10T01:36:01.082Z,2.16
2018-01-10T01:37:01.044Z,2.04
2018-01-10T01:38:00.985Z,1.90
2018-01-10T01:39:00.941Z,1.79
2018-01-10T01:40:00.890Z,1.65
2018-01-10T01:41:00.841Z,1.68
2018-01-10T01:42:00.823Z,1.58
2018-01-10T01:43:00.752Z,1.52
2018-01-10T01:44:00.722Z,1.57
2018-01-10T01:45:00.659Z,1.50
2018-01-10T01:46:00.615Z,1.50
2018-01-10T01:47:00.562Z,1.47
2018-01-10T01:48:00.529Z,1.57
2018-01-10T01:49:00.480Z,1.60
2018-01-10T01:50:00.431Z,1.55
2018-01-10T01:51:00.403Z,1.54
2018-01-10T01:52:00.341Z,1.37
2018-01-10T01:53:00.306Z,1.50
2018-01-10T01:54:00.251Z,1.55
2018-01-10T01:55:00.197Z,1.51
2018-01-10T01:56:00.158Z,1.50
2018-01-10T01:57:00.114Z,1.61
2018-01-10T01:58:00.068Z,1.52
2018-01-10T01:59:00.016Z,1.50
2018-01-10T01:59:59.995Z,1.40
2018-01-10T02:00:59.927Z,1.52
2018-01-10T02:01:59.885Z,1.60
2018-01-10T02:02:59.827Z,1.64
2018-01-10T02:03:59.803Z,1.71
2018-01-10T02:04:59.737Z,1.75
2018-01-10T02:05:59.686Z,1.75
2018-01-10T02:06:59.648Z,1.76
2018-01-10T02:07:59.615Z,1.54
2018-01-10T02:08:59.541Z,1.39
2018-01-10T02:09:59.507Z,1.36
2018-01-10T02:10:59.467Z,1.18
2018-01-10T02:11:59.404Z,1.26
2018-01-10T02:12:59.362Z,1.28
2018-01-10T02:13:59.319Z,1.36
2018-01-10T02:14:59.285Z,1.51
2018-01-10T02:15:59.226Z,1.43
2018-01-10T02:16:59.180Z,1.40
2018-01-10T02:17:59.141Z,1.44
2018-01-10T02:18:59.089Z,1.39
2018-01-10T02:19:59.039Z,1.18
2018-01-10T02:20:59.001Z,1.12
2018-01-10T02:21:58.939Z,1.10
2018-01-10T02:22:58.920Z,1.01
2018-01-10T02:23:58.851Z,1.08
2018-01-10T02:24:58.807Z,1.08
2018-01-10T02:25:58.757Z,1.00
2018-01-10T02:26:58.708Z,0.97
2018-01-10T02:27:58.680Z,0.96
2018-01-10T02:28:58.622Z,0.92
2018-01-10T02:29:58.574Z,0.94
2018-01-10T02:30:58.533Z,0.97
2018-01-10T02:31:58.493Z,0.92
2018-01-10T02:32:58.445Z,0.88
2018-01-10T02:33:58.384Z,0.80
2018-01-10T02:34:58.346Z,0.88
2018-01-10T02:35:58.303Z,0.92
2018-01-10T02:36:58.236Z,0.92
2018-01-10T02:37:58.195Z,0.86
2018-01-10T02:38:58.157Z,0.92
2018-01-10T02:39:58.106Z,0.89
2018-01-10T02:40:58.059Z,0.86
2018-01-10T02:41:58.015Z,0.75
2018-01-10T02:42:57.977Z,0.76
2018-01-10T02:43:57.920Z,0.72
2018-01-10T02:44:57.872Z,0.90
2018-01-10T02:45:57.834Z,1.21
2018-01-10T02:46:57.779Z,1.36
2018-01-10T02:47:57.731Z,1.36
2018-01-10T02:48:57.691Z,1.06
2018-01-10T02:49:57.661Z,1.10
2018-01-10T02:50:57.613Z,0.92
2018-01-10T02:51:57.539Z,0.86
2018-01-10T02:52:57.535Z,0.89
2018-01-10T02:53:57.466Z,0.88
2018-01-10T02:54:57.397Z,0.80
2018-01-10T02:55:57.355Z,0.78
2018-01-10T02:56:57.333Z,0.75
2018-01-10T02:57:57.272Z,0.68
2018-01-10T02:58:57.220Z,0.72
2018-01-10T02:59:57.180Z,0.68
2018-01-10T03:00:57.119Z,0.65
2018-01-10T03:01:57.079Z,0.57
2018-01-10T03:02:57.029Z,0.58
2018-01-10T03:03:56.986Z,0.62
2018-01-10T03:04:56.932Z,0.62
2018-01-10T03:05:56.884Z,0.83
2018-01-10T03:06:56.839Z,0.68
2018-01-10T03:07:56.887Z,0.70
2018-01-10T03:08:56.750Z,0.67
2018-01-10T03:09:56.710Z,0.71
2018-01-10T03:10:56.659Z,0.70
2018-01-10T03:11:56.594Z,0.68
2018-01-10T03:12:56.573Z,0.65
2018-01-10T03:13:56.512Z,0.65
2018-01-10T03:14:56.462Z,0.67
2018-01-10T03:15:56.423Z,0.71
2018-01-10T03:16:56.374Z,0.76
2018-01-10T03:17:56.335Z,0.71
2018-01-10T03:18:56.271Z,0.72
2018-01-10T03:19:56.238Z,0.82
2018-01-10T03:20:56.180Z,0.98
2018-01-10T03:21:56.128Z,1.01
2018-01-10T03:22:56.088Z,0.92
2018-01-10T03:23:56.043Z,0.85
2018-01-10T03:24:55.998Z,0.85
2018-01-10T03:25:55.952Z,0.78
2018-01-10T03:26:55.907Z,0.82
2018-01-10T03:27:55.855Z,0.78
2018-01-10T03:28:55.870Z,0.85
2018-01-10T03:29:55.763Z,0.71
2018-01-10T03:30:55.713Z,0.76
2018-01-10T03:31:55.673Z,0.76
2018-01-10T03:32:55.620Z,0.85
2018-01-10T03:33:55.570Z,0.76
2018-01-10T03:34:55.534Z,0.71
2018-01-10T03:35:55.481Z,0.70
2018-01-10T03:36:55.435Z,0.70
2018-01-10T03:37:55.390Z,0.71
2018-01-10T03:38:55.334Z,0.79
2018-01-10T03:39:55.288Z,0.85
2018-01-10T03:40:55.241Z,0.90
2018-01-10T03:41:55.203Z,0.98
2018-01-10T03:42:55.145Z,1.08
2018-01-10T03:43:55.091Z,1.28
2018-01-10T03:44:55.049Z,1.33
2018-01-10T03:45:54.999Z,1.10
2018-01-10T03:46:54.959Z,0.79
2018-01-10T03:47:54.905Z,0.80
2018-01-10T03:48:54.871Z,0.67
2018-01-10T03:49:54.825Z,0.61
2018-01-10T03:50:54.774Z,0.61
2018-01-10T03:51:54.732Z,0.53
2018-01-10T03:52:54.705Z,0.60
2018-01-10T03:53:54.639Z,0.49
2018-01-10T03:54:54.592Z,0.58
2018-01-10T03:55:54.533Z,0.52
2018-01-10T03:56:54.488Z,0.58
2018-01-10T03:57:54.444Z,0.58
2018-01-10T03:58:54.393Z,0.58
2018-01-10T03:59:54.355Z,0.49
2018-01-10T04:00:54.300Z,0.53
2018-01-10T04:01:54.257Z,0.61
2018-01-10T04:02:54.218Z,0.60
2018-01-10T04:03:54.164Z,0.67
2018-01-10T04:04:54.116Z,0.68
2018-01-10T04:05:54.066Z,0.62
2018-01-10T04:06:54.022Z,0.70
2018-01-10T04:07:53.972Z,0.78
2018-01-10T04:08:53.931Z,0.76
2018-01-10T04:09:53.878Z,0.80
2018-01-10T04:10:53.844Z,0.76
2018-01-10T04:11:53.793Z,0.80
2018-01-10T04:12:53.737Z,0.79
2018-01-10T04:13:53.708Z,0.82
2018-01-10T04:14:53.644Z,0.85
2018-01-10T04:15:53.595Z,0.83
2018-01-10T04:16:53.554Z,0.89
2018-01-10T04:17:53.565Z,0.78
2018-01-10T04:18:53.454Z,0.79
2018-01-10T04:19:53.412Z,0.83
2018-01-10T04:20:53.363Z,0.83
2018-01-10T04:21:53.317Z,0.88
2018-01-10T04:22:53.265Z,0.97
2018-01-10T04:23:53.263Z,1.07
2018-01-10T04:24:53.181Z,1.08
2018-01-10T04:25:53.142Z,1.00
2018-01-10T04:26:53.129Z,0.90
2018-01-10T04:27:55.372Z,0.94
2018-01-10T04:28:53.013Z,0.97
2018-01-10T04:29:52.935Z,0.85
2018-01-10T04:30:52.913Z,0.88
2018-01-10T04:31:52.867Z,0.85
2018-01-10T04:32:52.814Z,0.86
2018-01-10T04:33:52.788Z,1.01
2018-01-10T04:34:52.717Z,1.07
2018-01-10T04:35:52.667Z,1.06
2018-01-10T04:36:52.610Z,0.97
2018-01-10T04:37:52.572Z,1.04
2018-01-10T04:38:52.532Z,1.08
2018-01-10T04:39:52.472Z,1.00
2018-01-10T04:40:52.435Z,0.96
2018-01-10T04:41:52.400Z,1.03
2018-01-10T04:42:52.339Z,1.07
2018-01-10T04:43:52.280Z,1.07
2018-01-10T04:44:52.255Z,1.10
2018-01-10T04:45:52.199Z,1.07
2018-01-10T04:46:52.128Z,1.06
2018-01-10T04:47:52.117Z,1.04
2018-01-10T04:48:52.043Z,1.12
2018-01-10T04:49:52.014Z,1.08
2018-01-10T04:50:51.967Z,1.14
2018-01-10T04:51:51.912Z,1.12
2018-01-10T04:52:51.863Z,1.21
2018-01-10T04:53:51.820Z,1.12
2018-01-10T04:54:51.779Z,1.22
2018-01-10T04:55:51.726Z,1.26
2018-01-10T04:56:51.679Z,1.34
2018-01-10T04:57:51.635Z,1.32
2018-01-10T04:58:51.585Z,1.29
2018-01-10T04:59:51.543Z,1.29
2018-01-10T05:00:51.508Z,1.43
2018-01-10T05:01:51.445Z,1.44
2018-01-10T05:02:51.394Z,1.61
2018-01-10T05:03:51.366Z,1.52
2018-01-10T05:04:51.304Z,1.43
2018-01-10T05:05:51.296Z,1.51
2018-01-10T05:06:51.234Z,1.51
2018-01-10T05:07:52.274Z,1.43
2018-01-10T05:08:51.116Z,1.57
2018-01-10T05:09:51.067Z,1.50
2018-01-10T05:10:51.044Z,1.51
2018-01-10T05:11:50.977Z,1.54
2018-01-10T05:12:50.936Z,1.43
2018-01-10T05:13:50.909Z,1.42
2018-01-10T05:14:50.851Z,1.42
2018-01-10T05:15:50.796Z,1.42
2018-01-10T05:16:50.756Z,1.36
2018-01-10T05:17:50.706Z,1.29
2018-01-10T05:18:50.665Z,1.42
2018-01-10T05:19:50.616Z,1.37
2018-01-10T05:20:50.574Z,1.43
2018-01-10T05:21:50.534Z,1.46
2018-01-10T05:22:50.477Z,1.42
2018-01-10T05:23:50.440Z,1.28
2018-01-10T05:24:50.414Z,1.19
2018-01-10T05:25:50.356Z,1.25
2018-01-10T05:26:50.308Z,1.10
2018-01-10T05:27:50.250Z,1.07
2018-01-10T05:28:50.226Z,0.96
2018-01-10T05:29:50.156Z,0.92
2018-01-10T05:30:50.109Z,0.75
2018-01-10T05:31:50.069Z,0.80
2018-01-10T05:32:50.020Z,0.88
2018-01-10T05:33:49.978Z,0.86
2018-01-10T05:34:49.913Z,0.90
2018-01-10T05:35:49.883Z,0.85
2018-01-10T05:36:49.821Z,0.75
2018-01-10T05:37:49.771Z,0.68
2018-01-10T05:38:49.749Z,0.68
2018-01-10T05:39:49.687Z,0.71
2018-01-10T05:40:49.661Z,0.76
2018-01-10T05:41:49.604Z,0.71
2018-01-10T05:42:49.550Z,0.71
2018-01-10T05:43:49.497Z,0.64
2018-01-10T05:44:49.460Z,0.68
2018-01-10T05:45:49.421Z,0.68
2018-01-10T05:46:49.373Z,0.65
2018-01-10T05:47:49.316Z,0.70
2018-01-10T05:48:49.266Z,0.79
2018-01-10T05:49:49.363Z,0.90
2018-01-10T05:50:49.180Z,0.72
2018-01-10T05:51:49.153Z,0.78
2018-01-10T05:52:49.089Z,0.83
2018-01-10T05:53:49.038Z,0.76
2018-01-10T05:54:48.981Z,0.67
2018-01-10T05:55:48.943Z,0.76
2018-01-10T05:56:48.899Z,0.68
2018-01-10T05:57:48.842Z,0.65
2018-01-10T05:58:48.801Z,0.62
2018-01-10T05:59:48.756Z,0.53
2018-01-10T06:00:48.686Z,0.46
2018-01-10T06:01:48.649Z,0.46
2018-01-10T06:02:48.609Z,0.48
2018-01-10T06:03:48.567Z,0.39
2018-01-10T06:04:48.518Z,0.27
2018-01-10T06:05:48.480Z,0.30
2018-01-10T06:06:48.408Z,0.33
2018-01-10T06:07:48.375Z,0.23
2018-01-10T06:08:48.374Z,0.24
2018-01-10T06:09:48.288Z,0.15
2018-01-10T06:10:48.227Z,-0.04
2018-01-10T06:11:48.192Z,0.06
2018-01-10T06:12:48.137Z,-0.08
2018-01-10T06:13:48.117Z,-0.01
2018-01-10T06:14:48.048Z,0.03
2018-01-10T06:15:47.993Z,0.05
2018-01-10T06:16:47.960Z,0.06
2018-01-10T06:17:48.007Z,-0.06
2018-01-10T06:18:47.851Z,-0.04
2018-01-10T06:19:47.814Z,0.21
2018-01-10T06:20:47.762Z,0.30
2018-01-10T06:21:47.730Z,0.30
2018-01-10T06:22:47.671Z,0.31
2018-01-10T06:23:47.613Z,0.34
2018-01-10T06:24:47.583Z,0.58
2018-01-10T06:25:47.509Z,0.76
2018-01-10T06:26:47.485Z,0.72
2018-01-10T06:27:47.447Z,0.58
2018-01-10T06:28:47.408Z,0.24
2018-01-10T06:29:47.342Z,0.27
2018-01-10T06:30:47.281Z,0.24
2018-01-10T06:31:47.230Z,0.13
2018-01-10T06:32:47.221Z,0.34
2018-01-10T06:33:47.142Z,0.33
2018-01-10T06:34:47.103Z,0.51
2018-01-10T06:35:47.051Z,0.76
2018-01-10T06:36:47.027Z,1.04
2018-01-10T06:37:46.960Z,1.32
2018-01-10T06:38:46.901Z,1.39
2018-01-10T06:39:46.857Z,1.42
2018-01-10T06:40:46.815Z,1.46
2018-01-10T06:41:46.776Z,1.16
2018-01-10T06:42:46.746Z,0.94
2018-01-10T06:43:46.686Z,0.70
2018-01-10T06:44:46.640Z,0.67
2018-01-10T06:45:46.582Z,0.67
2018-01-10T06:46:46.520Z,0.78
2018-01-10T06:47:46.475Z,0.67
2018-01-10T06:48:48.272Z,0.51
2018-01-10T06:49:46.398Z,0.57
2018-01-10T06:50:46.421Z,0.57
2018-01-10T06:51:46.289Z,0.52
2018-01-10T06:52:46.272Z,0.60
2018-01-10T06:53:46.206Z,0.71
2018-01-10T06:54:46.194Z,0.82
2018-01-10T06:55:46.101Z,0.72
2018-01-10T06:56:46.097Z,0.61
2018-01-10T06:57:46.011Z,0.52
2018-01-10T06:58:45.955Z,0.34
2018-01-10T06:59:45.911Z,0.38
2018-01-10T07:00:45.877Z,0.21
2018-01-10T07:01:45.814Z,0.27
2018-01-10T07:02:45.766Z,0.30
2018-01-10T07:03:45.714Z,0.20
2018-01-10T07:04:45.683Z,0.10
2018-01-10T07:05:45.644Z,0.10
2018-01-10T07:06:45.576Z,0.02
2018-01-10T07:07:45.536Z,0.09
2018-01-10T07:08:45.475Z,-0.05
2018-01-10T07:09:45.435Z,0.03
2018-01-10T07:10:45.376Z,-0.11
2018-01-10T07:11:45.348Z,0.00
2018-01-10T07:12:45.292Z,0.05
2018-01-10T07:13:45.243Z,0.02
2018-01-10T07:14:45.197Z,0.07
2018-01-10T07:15:45.150Z,0.06
2018-01-10T07:16:45.103Z,-0.01
2018-01-10T07:17:45.060Z,0.09
2018-01-10T07:18:44.992Z,0.02
2018-01-10T07:19:44.938Z,0.10
2018-01-10T07:20:44.926Z,0.15
2018-01-10T07:21:44.874Z,0.18
2018-01-10T07:22:44.805Z,0.05
2018-01-10T07:23:44.758Z,0.05
2018-01-10T07:24:44.724Z,0.10
2018-01-10T07:25:44.667Z,0.05
2018-01-10T07:26:44.635Z,0.00
2018-01-10T07:27:44.586Z,0.10
2018-01-10T07:28:44.552Z,0.12
2018-01-10T07:29:44.492Z,0.15
2018-01-10T07:30:44.448Z,0.13
2018-01-10T07:31:44.404Z,0.06
2018-01-10T07:32:44.334Z,-0.12
2018-01-10T07:33:44.282Z,-0.08
2018-01-10T07:34:44.247Z,-0.06
2018-01-10T07:35:44.219Z,-0.08
2018-01-10T07:36:44.150Z,-0.08
2018-01-10T07:37:44.100Z,-0.09
2018-01-10T07:38:44.039Z,-0.01
2018-01-10T07:39:44.000Z,-0.11
2018-01-10T07:40:43.972Z,-0.08
2018-01-10T07:41:43.910Z,-0.11
2018-01-10T07:42:43.888Z,-0.01
2018-01-10T07:43:43.817Z,-0.11
2018-01-10T07:44:43.770Z,-0.08
2018-01-10T07:45:43.713Z,-0.01
2018-01-10T07:46:43.697Z,-0.08
2018-01-10T07:47:43.625Z,-0.08
2018-01-10T07:48:43.574Z,-0.13
2018-01-10T07:49:43.529Z,-0.09
2018-01-10T07:50:43.475Z,-0.11
2018-01-10T07:51:43.456Z,0.00
2018-01-10T07:52:43.382Z,0.05
2018-01-10T07:53:43.337Z,0.15
2018-01-10T07:54:43.281Z,0.12
2018-01-10T07:55:43.259Z,0.06
2018-01-10T07:56:43.191Z,0.09
2018-01-10T07:57:43.164Z,0.03
2018-01-10T07:58:43.097Z,0.07
2018-01-10T07:59:43.045Z,0.03
2018-01-10T08:00:43.006Z,-0.01
2018-01-10T08:01:42.954Z,-0.08
2018-01-10T08:02:42.936Z,0.06
2018-01-10T08:03:42.867Z,-0.08
2018-01-10T08:04:42.833Z,0.02
2018-01-10T08:05:42.769Z,0.20
2018-01-10T08:06:42.767Z,0.36
2018-01-10T08:07:42.678Z,0.57
2018-01-10T08:08:42.620Z,0.57
2018-01-10T08:09:42.624Z,0.43
2018-01-10T08:10:42.556Z,0.43
2018-01-10T08:11:42.483Z,0.60
2018-01-10T08:12:42.436Z,0.38
2018-01-10T08:13:42.398Z,0.39
2018-01-10T08:14:42.338Z,0.24
2018-01-10T08:15:42.349Z,0.21
2018-01-10T08:16:42.235Z,0.21
2018-01-10T08:17:42.195Z,0.30
2018-01-10T08:18:42.155Z,0.23
2018-01-10T08:19:42.111Z,0.23
2018-01-10T08:20:42.050Z,0.31
2018-01-10T08:21:42.021Z,0.23
2018-01-10T08:22:42.029Z,0.27
2018-01-10T08:23:41.952Z,0.48
2018-01-10T08:24:41.881Z,0.43
2018-01-10T08:25:41.860Z,0.49
2018-01-10T08:26:41.782Z,0.53
2018-01-10T08:27:41.724Z,0.45
2018-01-10T08:28:41.752Z,0.71
2018-01-10T08:29:41.663Z,0.57
2018-01-10T08:30:41.599Z,0.75
2018-01-10T08:31:41.546Z,0.70
2018-01-10T08:32:41.508Z,0.75
2018-01-10T08:33:41.520Z,0.76
2018-01-10T08:34:41.399Z,0.78
2018-01-10T08:35:41.360Z,0.88
2018-01-10T08:36:41.320Z,1.03
2018-01-10T08:37:41.275Z,1.06
2018-01-10T08:38:41.212Z,1.10
2018-01-10T08:39:41.171Z,1.26
2018-01-10T08:40:41.180Z,1.42
2018-01-10T08:41:41.187Z,1.51
2018-01-10T08:42:41.060Z,1.51
2018-01-10T08:43:41.005Z,1.46
2018-01-10T08:44:41.066Z,1.36
2018-01-10T08:45:41.708Z,1.32
2018-01-10T08:46:40.849Z,1.28
2018-01-10T08:47:40.816Z,1.22
2018-01-10T08:48:40.755Z,1.21
2018-01-10T08:49:40.701Z,1.25
2018-01-10T08:50:40.657Z,1.34
2018-01-10T08:51:40.610Z,1.51
2018-01-10T08:52:40.565Z,1.51
2018-01-10T08:53:40.518Z,1.57
2018-01-10T08:54:40.472Z,1.52
2018-01-10T08:55:40.441Z,1.54
2018-01-10T08:56:40.411Z,1.57
2018-01-10T08:57:40.365Z,1.55
2018-01-10T08:58:40.293Z,1.65
2018-01-10T08:59:40.265Z,1.52
2018-01-10T09:00:40.200Z,1.58
2018-01-10T09:01:40.144Z,1.71
2018-01-10T09:02:40.133Z,1.60
2018-01-10T09:03:40.084Z,1.62
2018-01-10T09:04:40.011Z,1.57
2018-01-10T09:05:39.970Z,1.62
2018-01-10T09:06:39.917Z,1.52
2018-01-10T09:07:39.918Z,1.61
2018-01-10T09:08:39.847Z,1.64
2018-01-10T09:09:39.773Z,1.55
2018-01-10T09:10:39.731Z,1.62
2018-01-10T09:11:39.681Z,1.73
2018-01-10T09:12:39.640Z,1.72
2018-01-10T09:13:39.595Z,1.73
2018-01-10T09:14:39.546Z,1.79
2018-01-10T09:15:39.518Z,1.90
2018-01-10T09:16:39.475Z,1.80
2018-01-10T09:17:39.450Z,1.79
2018-01-10T09:18:39.406Z,1.75
2018-01-10T09:19:39.311Z,1.89
2018-01-10T09:20:39.294Z,1.78
2018-01-10T09:21:39.271Z,1.78
2018-01-10T09:22:39.185Z,1.61
2018-01-10T09:23:39.153Z,1.54
2018-01-10T09:24:39.090Z,1.61
2018-01-10T09:25:39.081Z,1.71
2018-01-10T09:26:39.035Z,1.85
2018-01-10T09:27:38.956Z,1.93
2018-01-10T09:28:38.913Z,2.08
2018-01-10T09:29:38.865Z,2.08
2018-01-10T09:30:38.845Z,2.15
2018-01-10T09:31:38.809Z,2.12
2018-01-10T09:32:38.725Z,2.20
2018-01-10T09:33:38.720Z,2.30
2018-01-10T09:34:38.636Z,2.40
2018-01-10T09:35:38.589Z,2.41
2018-01-10T09:36:38.548Z,2.40
2018-01-10T09:37:38.502Z,2.34
2018-01-10T09:38:38.484Z,2.17
2018-01-10T09:39:39.202Z,2.10
2018-01-10T09:40:38.371Z,2.13
2018-01-10T09:41:38.316Z,2.34
2018-01-10T09:42:38.283Z,2.37
2018-01-10T09:43:38.269Z,2.52
2018-01-10T09:44:38.190Z,2.69
2018-01-10T09:45:38.226Z,2.79
2018-01-10T09:46:38.129Z,2.91
2018-01-10T09:47:38.108Z,2.98
2018-01-10T09:48:38.019Z,3.07
2018-01-10T09:49:37.966Z,3.21
2018-01-10T09:50:37.941Z,3.24
2018-01-10T09:51:37.910Z,3.54
2018-01-10T09:52:37.858Z,4.01
2018-01-10T09:53:37.793Z,4.39
2018-01-10T09:54:37.747Z,4.69
2018-01-10T09:55:37.704Z,4.61
2018-01-10T09:56:37.664Z,4.77
2018-01-10T09:57:37.647Z,5.17
2018-01-10T09:58:37.574Z,5.46
2018-01-10T09:59:37.604Z,5.57
2018-01-10T10:00:37.489Z,5.63
2018-01-10T10:01:37.453Z,5.81
2018-01-10T10:02:37.409Z,6.36
2018-01-10T10:03:37.366Z,6.66
2018-01-10T10:04:37.327Z,6.91
2018-01-10T10:05:37.283Z,7.15
2018-01-10T10:06:37.248Z,7.16
2018-01-10T10:07:37.209Z,7.05
2018-01-10T10:08:37.166Z,6.91
2018-01-10T10:09:37.136Z,6.99
2018-01-10T10:10:37.083Z,7.27
2018-01-10T10:11:37.070Z,7.69
2018-01-10T10:12:37.018Z,7.92
2018-01-10T10:13:37.089Z,8.20
2018-01-10T10:14:36.960Z,8.83
2018-01-10T10:15:36.910Z,9.30
2018-01-10T10:16:36.869Z,9.38
2018-01-10T10:17:36.832Z,9.39
2018-01-10T10:18:36.789Z,9.63
2018-01-10T10:19:36.772Z,9.50
2018-01-10T10:20:36.722Z,10.07
2018-01-10T10:21:36.688Z,10.51
2018-01-10T10:22:36.649Z,10.73
2018-01-10T10:23:36.605Z,10.78
2018-01-10T10:24:36.582Z,10.53
2018-01-10T10:25:36.537Z,10.37
2018-01-10T10:26:36.543Z,10.21
2018-01-10T10:27:36.465Z,9.67
2018-01-10T10:28:36.441Z,9.60
2018-01-10T10:29:36.424Z,9.50
2018-01-10T10:30:36.370Z,9.40
2018-01-10T10:31:36.333Z,9.63
2018-01-10T10:32:36.315Z,9.20
2018-01-10T10:33:36.275Z,9.16
2018-01-10T10:34:36.238Z,9.48
2018-01-10T10:35:36.245Z,9.42
2018-01-10T10:36:36.178Z,9.49
2018-01-10T10:37:36.153Z,9.48
2018-01-10T10:38:36.140Z,9.58
2018-01-10T10:39:36.075Z,9.49
2018-01-10T10:40:36.028Z,9.52
2018-01-10T10:41:36.009Z,9.56
2018-01-10T10:42:35.969Z,9.70
2018-01-10T10:43:35.927Z,9.60
2018-01-10T10:44:35.902Z,9.50
2018-01-10T10:45:35.879Z,9.64
2018-01-10T10:46:35.839Z,9.99
2018-01-10T10:47:35.802Z,10.09
2018-01-10T10:48:35.778Z,10.22
2018-01-10T10:49:35.752Z,10.17
2018-01-10T10:50:35.705Z,10.28
2018-01-10T10:51:35.665Z,10.40
2018-01-10T10:52:35.655Z,10.66
2018-01-10T10:53:35.600Z,10.56
2018-01-10T10:54:35.603Z,10.88
2018-01-10T10:55:35.551Z,11.01
2018-01-10T10:56:35.495Z,11.19
2018-01-10T10:57:35.466Z,11.32
2018-01-10T10:58:35.446Z,11.65
2018-01-10T10:59:35.413Z,11.44
2018-01-10T11:00:35.366Z,11.49
2018-01-10T11:01:35.346Z,11.85
2018-01-10T11:02:35.311Z,12.05
2018-01-10T11:03:35.275Z,12.33
2018-01-10T11:04:35.255Z,12.24
2018-01-10T11:05:35.220Z,12.06
2018-01-10T11:06:35.183Z,12.05
2018-01-10T11:07:35.140Z,12.27
2018-01-10T11:08:35.104Z,12.48
2018-01-10T11:09:36.790Z,12.31
2018-01-10T11:10:35.052Z,12.11
2018-01-10T11:11:35.012Z,12.09
2018-01-10T11:12:34.996Z,11.61
2018-01-10T11:13:34.993Z,11.39
2018-01-10T11:14:34.930Z,11.68
2018-01-10T11:15:34.891Z,12.05
2018-01-10T11:16:34.895Z,12.24
2018-01-10T11:17:34.827Z,12.27
2018-01-10T11:18:34.809Z,12.08
2018-01-10T11:19:34.788Z,12.06
2018-01-10T11:20:34.737Z,12.31
2018-01-10T11:21:34.709Z,11.89
2018-01-10T11:22:34.689Z,12.19
2018-01-10T11:23:34.657Z,11.80
2018-01-10T11:24:34.627Z,11.85
2018-01-10T11:25:34.601Z,11.82
2018-01-10T11:26:34.553Z,11.86
2018-01-10T11:27:34.536Z,11.71
2018-01-10T11:28:34.496Z,11.83
2018-01-10T11:29:34.461Z,11.71
2018-01-10T11:30:34.439Z,11.57
2018-01-10T11:31:34.432Z,11.43
2018-01-10T11:32:34.372Z,11.03
2018-01-10T11:33:34.367Z,11.11
2018-01-10T11:34:34.350Z,11.16
2018-01-10T11:35:34.297Z,11.20
2018-01-10T11:36:34.259Z,11.27
2018-01-10T11:37:34.243Z,11.16
2018-01-10T11:38:34.190Z,11.11
2018-01-10T11:39:34.166Z,11.47
2018-01-10T11:40:34.154Z,11.21
2018-01-10T11:41:34.126Z,11.50
2018-01-10T11:42:34.084Z,11.72
2018-01-10T11:43:34.055Z,11.85
2018-01-10T11:44:34.015Z,12.08
2018-01-10T11:45:33.993Z,11.99
2018-01-10T11:46:33.950Z,11.80
2018-01-10T11:47:33.911Z,11.85
2018-01-10T11:48:33.892Z,11.72
2018-01-10T11:49:33.855Z,11.39
2018-01-10T11:50:33.830Z,11.19
2018-01-10T11:51:33.806Z,11.09
2018-01-10T11:52:33.778Z,11.27
2018-01-10T11:53:33.754Z,10.96
2018-01-10T11:54:33.703Z,11.11
2018-01-10T11:55:33.701Z,11.27
2018-01-10T11:56:33.656Z,11.36
2018-01-10T11:57:33.624Z,11.49
2018-01-10T11:58:33.604Z,11.74
2018-01-10T11:59:33.560Z,11.57
2018-01-10T12:00:33.523Z,11.57
2018-01-10T12:01:33.478Z,11.44
2018-01-10T12:02:33.456Z,11.28
2018-01-10T12:03:33.418Z,10.89
2018-01-10T12:04:33.398Z,10.55
2018-01-10T12:05:33.369Z,10.21
2018-01-10T12:06:33.375Z,10.18
2018-01-10T12:07:33.297Z,10.17
2018-01-10T12:08:33.295Z,10.33
2018-01-10T12:09:33.235Z,10.30
2018-01-10T12:10:33.200Z,10.26
2018-01-10T12:11:33.170Z,10.17
2018-01-10T12:12:33.180Z,9.79
2018-01-10T12:13:33.107Z,9.76
2018-01-10T12:14:33.092Z,9.60
2018-01-10T12:15:33.034Z,9.63
2018-01-10T12:16:33.045Z,9.64
2018-01-10T12:17:32.989Z,9.64
2018-01-10T12:18:32.945Z,9.61
2018-01-10T12:19:32.901Z,9.34
2018-01-10T12:20:32.878Z,9.21
2018-01-10T12:21:32.845Z,9.05
2018-01-10T12:22:32.795Z,8.83
2018-01-10T12:23:32.768Z,8.96
2018-01-10T12:24:32.728Z,8.93
2018-01-10T12:25:32.688Z,8.87
2018-01-10T12:26:32.672Z,8.73
2018-01-10T12:27:32.626Z,8.65
2018-01-10T12:28:32.581Z,8.51
2018-01-10T12:29:32.598Z,8.69
2018-01-10T12:30:32.529Z,8.42
2018-01-10T12:31:32.478Z,8.39
2018-01-10T12:32:32.457Z,8.15
2018-01-10T12:33:32.390Z,8.00
2018-01-10T12:34:32.360Z,7.99
2018-01-10T12:35:32.339Z,8.07
2018-01-10T12:36:32.340Z,7.97
2018-01-10T12:37:32.265Z,7.92
2018-01-10T12:38:32.223Z,8.02
2018-01-10T12:39:32.182Z,7.85
2018-01-10T12:40:32.142Z,7.81
2018-01-10T12:41:32.120Z,7.81
2018-01-10T12:42:32.113Z,7.74
2018-01-10T12:43:32.037Z,7.71
2018-01-10T12:44:32.017Z,7.60
2018-01-10T12:45:31.960Z,7.74
2018-01-10T12:46:31.948Z,7.69
2018-01-10T12:47:31.880Z,7.47
2018-01-10T12:48:31.840Z,7.53
2018-01-10T12:49:31.827Z,7.44
2018-01-10T12:50:31.760Z,7.32
2018-01-10T12:51:31.747Z,7.44
2018-01-10T12:52:31.706Z,7.45
2018-01-10T12:53:31.657Z,7.32
2018-01-10T12:54:31.609Z,7.26
2018-01-10T12:55:31.574Z,7.27
2018-01-10T12:56:31.541Z,7.05
2018-01-10T12:57:31.494Z,7.05
2018-01-10T12:58:31.454Z,7.08
2018-01-10T12:59:31.428Z,7.15
2018-01-10T13:00:31.381Z,7.15
2018-01-10T13:01:31.342Z,7.02
2018-01-10T13:02:31.328Z,6.99
2018-01-10T13:03:31.248Z,7.08
2018-01-10T13:04:31.201Z,6.99
2018-01-10T13:05:31.183Z,7.04
2018-01-10T13:06:32.853Z,7.02
2018-01-10T13:07:31.129Z,6.99
2018-01-10T13:08:31.048Z,7.01
2018-01-10T13:09:31.026Z,7.16
2018-01-10T13:10:31.276Z,7.16
2018-01-10T13:11:31.300Z,7.07
2018-01-10T13:12:31.244Z,6.99
2018-01-10T13:13:30.854Z,7.29